»·PEaware :: N241BJ KATL-KBNA

N241BJ :: KATL-KBNA

FLIGHT INFORMATION

Flight Status: Arrived
Operator: Privately registered:
United States
More flights under this callsign
Pilot: Anonymous 14085 (14085)
Aircraft: MCDONNELL-DOUGLAS MD-88
(MD88)
More flights by this aircraft type
Origin: KATL Hartsfield-Jackson Atlanta
United States
Destination: KBNA Nashville Intl
United States
More flights between these airports :: More routes between these airports
Route: PENCL2 PENCL JAGIR SWFFT2
File this flight plan on PilotEdge
Remarks:
Altitude:
(Current/Filed)
28,000ft
Speed:
(Current/Filed)
450kts
Departed: 20-May-17 04:49 PM
Arrived: 20-May-17 05:29 PM
Distance/Time
Traveled:
185nm/0:40
Distance/Time
To Go:
Arrived

Flight Plot

Page will automatically refresh every two minutes.

Flight plan parsing failed; only flown route is shown


Map Options




Map Legend


Flown Route
Filed Route
Departure Airport
Arrival Airport
Navaid (VOR, NDB)
Fix

Horizontal Profiles

Position Reports

Time Latitude Longitude Heading Altitude Ground
Speed
20-May-17 16:28 33.651598 -84.430711 168 1031ft 0kts
20-May-17 16:29 33.651598 -84.430711 168 1031ft 0kts
20-May-17 16:30 33.651598 -84.430711 168 1031ft 0kts
20-May-17 16:31 33.651598 -84.430711 168 1031ft 0kts
20-May-17 16:32 33.651598 -84.430711 168 1031ft 0kts
20-May-17 16:33 33.651598 -84.430711 168 1031ft 0kts
20-May-17 16:34 33.651598 -84.430711 168 1031ft 0kts
20-May-17 16:35 33.651598 -84.430711 168 1031ft 0kts
20-May-17 16:36 33.651598 -84.430711 168 1031ft 0kts
20-May-17 16:37 33.651598 -84.430711 168 1031ft 0kts
20-May-17 16:38 33.651598 -84.430711 168 1031ft 0kts
20-May-17 16:39 33.651598 -84.430711 168 1031ft 0kts
20-May-17 16:40 33.651598 -84.430711 168 1031ft 0kts
20-May-17 16:41 33.651598 -84.430711 168 1031ft 0kts
20-May-17 16:42 33.651598 -84.430711 168 1031ft 0kts
20-May-17 16:43 33.651690 -84.430734 168 1031ft 3kts
20-May-17 16:44 33.650974 -84.431925 164 1031ft 10kts
20-May-17 16:45 33.650638 -84.429692 90 1031ft 9kts
20-May-17 16:46 33.650626 -84.424096 90 1031ft 23kts
20-May-17 16:47 33.650625 -84.416649 89 1031ft 14kts
20-May-17 16:48 33.651197 -84.413692 89 1031ft 10kts
20-May-17 16:49 33.651166 -84.410158 104 1031ft 7kts
20-May-17 16:50 33.649524 -84.411648 270 1031ft 40kts
20-May-17 16:51 33.649856 -84.459432 267 1900ft 219kts
20-May-17 16:52 33.672502 -84.532264 295 5156ft 273kts
20-May-17 16:53 33.713982 -84.587908 348 8441ft 294kts
20-May-17 16:54 33.809695 -84.581303 2 12648ft 310kts
20-May-17 16:55 33.904233 -84.599093 344 14761ft 372kts
20-May-17 16:56 34.004540 -84.632058 344 17872ft 389kts
20-May-17 16:57 34.101177 -84.663334 343 20492ft 402kts
20-May-17 16:58 34.208795 -84.698186 342 23173ft 412kts
20-May-17 16:59 34.297411 -84.737187 319 25216ft 411kts
20-May-17 17:00 34.409760 -84.827391 324 28061ft 415kts
20-May-17 17:01 34.490773 -84.889442 324 28156ft 416kts
20-May-17 17:02 34.604861 -84.976688 324 28156ft 416kts
20-May-17 17:03 34.685445 -85.038745 323 27871ft 404kts
20-May-17 17:04 34.794404 -85.123517 324 27004ft 398kts
20-May-17 17:05 34.871598 -85.183518 324 26390ft 396kts
20-May-17 17:06 34.964053 -85.255211 322 25654ft 394kts
20-May-17 17:07 35.057791 -85.328139 321 24927ft 405kts
20-May-17 17:08 35.147816 -85.398289 319 24199ft 398kts
20-May-17 17:09 35.224746 -85.490216 307 22882ft 382kts
20-May-17 17:10 35.296996 -85.583105 308 21440ft 375kts
20-May-17 17:11 35.367816 -85.673972 308 20060ft 368kts
20-May-17 17:12 35.437830 -85.763676 308 18729ft 362kts
20-May-17 17:13 35.506900 -85.852074 309 17416ft 355kts
20-May-17 17:14 35.574244 -85.939455 308 15945ft 353kts
20-May-17 17:15 35.638477 -86.025548 308 14096ft 349kts
20-May-17 17:16 35.702731 -86.111610 309 12433ft 340kts
20-May-17 17:17 35.765550 -86.195863 309 11002ft 323kts
20-May-17 17:18 35.824127 -86.273680 310 9915ft 303kts
20-May-17 17:19 35.880525 -86.347952 311 8680ft 291kts
20-May-17 17:20 35.934842 -86.419267 310 7486ft 284kts
20-May-17 17:21 35.988350 -86.489594 314 6425ft 276kts
20-May-17 17:22 36.041219 -86.555968 334 5413ft 266kts
20-May-17 17:23 36.110160 -86.561400 13 4474ft 247kts
20-May-17 17:24 36.175683 -86.540129 19 3488ft 241kts
20-May-17 17:25 36.232097 -86.517621 15 2545ft 194kts
20-May-17 17:26 36.269644 -86.543505 256 2514ft 182kts
20-May-17 17:27 36.250981 -86.601281 245 2511ft 180kts
20-May-17 17:28 36.212741 -86.627831 194 2202ft 153kts
20-May-17 17:29 36.174326 -86.642952 195 1402ft 137kts
20-May-17 17:30 36.138372 -86.657427 196 732ft 135kts
20-May-17 17:31 36.120552 -86.664835 257 604ft 8kts
20-May-17 17:32 36.122312 -86.665796 301 604ft 11kts
20-May-17 17:33 36.123292 -86.668993 301 604ft 13kts
20-May-17 17:34 36.122055 -86.672510 199 604ft 9kts
20-May-17 17:35 36.236489 -86.622147 189 2515ft 173kts
20-May-17 17:36 36.157993 -86.649634 195 1157ft 136kts
20-May-17 17:37 36.178935 -86.641136 195 1535ft 138kts
20-May-17 17:38 36.140354 -86.656598 196 761ft 137kts
20-May-17 17:39 36.120594 -86.664683 242 604ft 9kts
20-May-17 17:40 36.122215 -86.665636 318 604ft 10kts
20-May-17 17:41 36.123194 -86.668797 301 604ft 12kts

Navigation Log

Ident Type
Flight plan parsing failed, navigation log unavailable